createdAt,value
2022-09-21T00:02:22.234Z,13.20
2022-09-21T00:06:35.007Z,13.20
2022-09-21T00:10:43.833Z,13.20
2022-09-21T00:14:52.790Z,13.20
2022-09-21T00:19:03.717Z,13.20
2022-09-21T00:23:12.669Z,13.20
2022-09-21T00:27:21.610Z,13.20
2022-09-21T00:31:31.747Z,13.10
2022-09-21T00:35:42.547Z,13.10
2022-09-21T00:39:51.566Z,13.10
2022-09-21T00:44:34.747Z,13.10
2022-09-21T00:48:43.805Z,13.10
2022-09-21T00:52:57.767Z,13.10
2022-09-21T00:57:08.284Z,13.10
2022-09-21T01:01:18.930Z,13.10
2022-09-21T01:05:27.865Z,13.10
2022-09-21T01:09:38.587Z,13.10
2022-09-21T01:14:01.664Z,13.00
2022-09-21T01:18:20.188Z,13.00
2022-09-21T01:22:42.965Z,13.00
2022-09-21T01:27:10.107Z,13.00
2022-09-21T01:31:25.992Z,12.90
2022-09-21T01:35:39.026Z,12.90
2022-09-21T01:39:52.110Z,12.90
2022-09-21T01:44:08.707Z,12.90
2022-09-21T01:48:22.608Z,12.80
2022-09-21T01:52:38.048Z,12.80
2022-09-21T01:56:49.544Z,12.70
2022-09-21T02:00:59.894Z,12.70
2022-09-21T02:05:10.787Z,12.70
2022-09-21T02:09:20.305Z,12.70
2022-09-21T02:13:34.289Z,12.70
2022-09-21T02:17:54.870Z,12.60
2022-09-21T02:22:10.685Z,12.60
2022-09-21T02:26:25.985Z,12.60
2022-09-21T02:30:36.664Z,12.60
2022-09-21T02:34:47.924Z,12.60
2022-09-21T02:39:06.805Z,12.60
2022-09-21T02:43:22.066Z,12.60
2022-09-21T02:47:35.847Z,12.60
2022-09-21T02:51:48.787Z,12.60
2022-09-21T02:56:07.189Z,12.60
2022-09-21T03:00:18.050Z,12.60
2022-09-21T03:04:28.228Z,12.50
2022-09-21T03:08:37.567Z,12.50
2022-09-21T03:12:47.928Z,12.50
2022-09-21T03:16:56.788Z,12.50
2022-09-21T03:21:05.889Z,12.50
2022-09-21T03:25:14.926Z,12.40
2022-09-21T03:29:25.486Z,12.40
2022-09-21T03:33:34.568Z,12.40
2022-09-21T03:37:43.507Z,12.40
2022-09-21T03:41:52.447Z,12.40
2022-09-21T03:46:02.931Z,12.40
2022-09-21T03:50:12.988Z,12.40
2022-09-21T03:54:21.928Z,12.40
2022-09-21T03:58:30.908Z,12.40
2022-09-21T04:02:41.988Z,12.30
2022-09-21T04:06:51.207Z,12.30
2022-09-21T04:11:00.428Z,12.30
2022-09-21T04:15:11.514Z,12.30
2022-09-21T04:19:22.645Z,12.30
2022-09-21T04:23:31.546Z,12.30
2022-09-21T04:27:40.790Z,12.30
2022-09-21T04:31:49.693Z,12.20
2022-09-21T04:36:00.088Z,12.20
2022-09-21T04:40:10.614Z,12.20
2022-09-21T04:44:19.845Z,12.20
2022-09-21T04:48:28.730Z,12.10
2022-09-21T04:52:39.467Z,12.10
2022-09-21T04:56:48.427Z,12.00
2022-09-21T05:00:57.386Z,12.00
2022-09-21T05:05:07.288Z,11.90
2022-09-21T05:09:36.007Z,11.90
2022-09-21T05:13:45.087Z,11.90
2022-09-21T05:17:53.886Z,11.90
2022-09-21T05:22:02.964Z,11.80
2022-09-21T05:26:13.385Z,11.90
2022-09-21T05:30:23.646Z,11.80
2022-09-21T05:34:42.628Z,11.80
2022-09-21T05:38:52.107Z,11.80
2022-09-21T05:43:03.082Z,11.80
2022-09-21T05:47:25.885Z,11.80
2022-09-21T05:51:40.164Z,11.70
2022-09-21T05:55:56.443Z,11.70
2022-09-21T06:00:17.066Z,11.70
2022-09-21T06:04:26.465Z,11.60
2022-09-21T06:08:35.307Z,11.60
2022-09-21T06:12:44.706Z,11.60
2022-09-21T06:16:55.153Z,11.60
2022-09-21T06:21:04.068Z,11.60
2022-09-21T06:25:12.966Z,11.60
2022-09-21T06:29:23.872Z,11.60
2022-09-21T06:33:36.064Z,11.60
2022-09-21T06:37:44.945Z,11.60
2022-09-21T06:41:54.286Z,11.70
2022-09-21T06:46:04.658Z,11.70
2022-09-21T06:50:15.325Z,11.70
2022-09-21T06:54:24.873Z,11.70
2022-09-21T06:58:34.964Z,11.80
2022-09-21T07:02:46.084Z,11.80
2022-09-21T07:06:56.524Z,11.90
2022-09-21T07:11:05.624Z,12.00
2022-09-21T07:15:15.745Z,12.10
2022-09-21T07:19:24.724Z,12.20
2022-09-21T07:23:35.644Z,12.30
2022-09-21T07:27:44.803Z,12.40
2022-09-21T07:31:53.792Z,12.50
2022-09-21T07:36:04.162Z,12.60
2022-09-21T07:40:14.771Z,12.70
2022-09-21T07:44:24.004Z,12.80
2022-09-21T07:48:33.122Z,12.90
2022-09-21T07:52:42.445Z,13.10
2022-09-21T07:57:06.523Z,13.30
2022-09-21T08:01:15.608Z,13.50
2022-09-21T08:05:24.662Z,13.70
2022-09-21T08:09:33.485Z,13.90
2022-09-21T08:13:44.006Z,14.10
2022-09-21T08:17:53.443Z,14.40
2022-09-21T08:22:02.501Z,14.60
2022-09-21T08:26:18.949Z,14.80
2022-09-21T08:30:31.444Z,15.10
2022-09-21T08:34:40.463Z,15.30
2022-09-21T08:38:51.203Z,15.50
2022-09-21T08:43:05.804Z,15.70
2022-09-21T08:47:20.684Z,16.00
2022-09-21T08:51:35.584Z,16.20
2022-09-21T08:55:44.742Z,16.50
2022-09-21T08:59:53.763Z,16.90
2022-09-21T09:04:24.394Z,17.20
2022-09-21T09:08:57.983Z,17.50
2022-09-21T09:13:22.424Z,17.80
2022-09-21T09:17:45.365Z,18.00
2022-09-21T09:21:57.724Z,18.10
2022-09-21T09:26:10.784Z,18.30
2022-09-21T09:30:22.139Z,18.40
2022-09-21T09:34:34.242Z,18.50
2022-09-21T09:38:51.802Z,18.70
2022-09-21T09:43:06.624Z,18.80
2022-09-21T09:47:26.484Z,19.00
2022-09-21T09:51:37.024Z,19.10
2022-09-21T09:55:50.082Z,19.20
2022-09-21T10:00:01.700Z,19.40
2022-09-21T10:04:12.536Z,19.40
2022-09-21T10:08:46.766Z,19.50
2022-09-21T10:12:59.203Z,19.70
2022-09-21T10:17:09.844Z,19.80
2022-09-21T10:21:23.330Z,19.90
2022-09-21T10:25:35.831Z,20.00
2022-09-21T10:29:51.142Z,20.00
2022-09-21T10:34:15.401Z,19.90
2022-09-21T10:38:28.922Z,20.00
2022-09-21T10:42:43.684Z,20.10
2022-09-21T10:51:08.382Z,19.90
2022-09-21T10:55:20.123Z,20.00
2022-09-21T10:59:31.763Z,20.10
2022-09-21T11:03:52.342Z,20.20
2022-09-21T11:08:10.700Z,20.20
2022-09-21T11:12:43.743Z,20.40
2022-09-21T11:16:58.164Z,20.40
2022-09-21T11:21:18.584Z,20.40
2022-09-21T11:25:36.943Z,20.40
2022-09-21T11:29:55.023Z,20.20
2022-09-21T11:34:17.403Z,20.30
2022-09-21T11:38:43.209Z,20.30
2022-09-21T11:43:04.163Z,20.20
2022-09-21T11:47:26.805Z,20.30
2022-09-21T11:52:00.502Z,20.40
2022-09-21T11:56:40.102Z,20.50
2022-09-21T12:00:59.342Z,20.60
2022-09-21T12:05:18.029Z,20.70
2022-09-21T12:09:45.644Z,20.50
2022-09-21T12:14:03.863Z,20.50
2022-09-21T12:18:19.023Z,20.40
2022-09-21T12:22:31.883Z,20.40
2022-09-21T12:26:45.223Z,20.60
2022-09-21T12:31:00.796Z,20.90
2022-09-21T12:35:16.844Z,21.20
2022-09-21T12:39:30.642Z,21.00
2022-09-21T12:43:45.744Z,20.90
2022-09-21T12:48:04.223Z,20.90
2022-09-21T12:52:23.883Z,21.10
2022-09-21T12:56:42.225Z,20.90
2022-09-21T13:00:59.624Z,21.10
2022-09-21T13:05:17.443Z,21.00
2022-09-21T13:09:27.525Z,21.10
2022-09-21T13:13:40.222Z,21.00
2022-09-21T13:18:00.242Z,20.80
2022-09-21T13:22:20.155Z,20.80
2022-09-21T13:26:42.183Z,20.90
2022-09-21T13:31:40.458Z,20.80
2022-09-21T13:36:02.385Z,20.90
2022-09-21T13:40:58.065Z,20.90
2022-09-21T13:45:47.053Z,20.80
2022-09-21T13:50:00.481Z,20.90
2022-09-21T13:54:16.060Z,21.00
2022-09-21T13:58:29.102Z,21.10
2022-09-21T14:02:40.525Z,21.00
2022-09-21T14:06:52.124Z,21.10
2022-09-21T14:11:04.497Z,21.00
2022-09-21T14:15:35.742Z,21.00
2022-09-21T14:20:08.403Z,21.00
2022-09-21T14:24:23.124Z,20.70
2022-09-21T14:28:38.523Z,20.80
2022-09-21T14:32:54.883Z,20.90
2022-09-21T14:37:07.962Z,20.70
2022-09-21T14:41:21.365Z,20.50
2022-09-21T14:45:39.124Z,20.70
2022-09-21T14:50:07.465Z,20.70
2022-09-21T14:54:35.764Z,20.60
2022-09-21T14:58:59.132Z,20.30
2022-09-21T15:03:30.212Z,20.20
2022-09-21T15:08:08.187Z,20.30
2022-09-21T15:12:21.042Z,20.00
2022-09-21T15:16:40.498Z,20.00
2022-09-21T15:21:01.600Z,20.10
2022-09-21T15:25:15.700Z,20.00
2022-09-21T15:29:28.102Z,19.80
2022-09-21T15:33:41.204Z,19.80
2022-09-21T15:37:51.207Z,19.80
2022-09-21T15:42:23.341Z,19.80
2022-09-21T15:46:33.164Z,19.90
2022-09-21T15:50:43.863Z,19.80
2022-09-21T15:54:58.105Z,19.90
2022-09-21T15:59:09.343Z,19.90
2022-09-21T16:03:22.601Z,19.90
2022-09-21T16:07:34.665Z,19.80
2022-09-21T16:11:44.203Z,19.70
2022-09-21T16:16:05.775Z,19.60
2022-09-21T16:20:23.283Z,19.30
2022-09-21T16:24:37.902Z,19.10
2022-09-21T16:28:47.223Z,18.90
2022-09-21T16:32:57.783Z,18.90
2022-09-21T16:37:28.383Z,18.90
2022-09-21T16:41:40.548Z,19.00
2022-09-21T16:45:49.889Z,19.00
2022-09-21T16:50:02.042Z,19.00
2022-09-21T16:54:11.263Z,18.90
2022-09-21T16:58:21.306Z,18.80
2022-09-21T17:02:31.790Z,18.80
2022-09-21T17:06:42.504Z,18.80
2022-09-21T17:10:51.642Z,18.60
2022-09-21T17:15:01.163Z,18.50
2022-09-21T17:19:11.823Z,18.40
2022-09-21T17:23:28.040Z,18.30
2022-09-21T17:27:37.163Z,18.20
2022-09-21T17:31:46.146Z,18.10
2022-09-21T17:35:55.604Z,18.00
2022-09-21T17:40:10.837Z,18.00
2022-09-21T17:44:34.464Z,17.80
2022-09-21T17:48:44.187Z,17.70
2022-09-21T17:53:12.003Z,17.70
2022-09-21T17:57:36.403Z,17.60
2022-09-21T18:01:45.797Z,17.50
2022-09-21T18:05:59.643Z,17.30
2022-09-21T18:10:10.862Z,17.20
2022-09-21T18:14:32.022Z,17.10
2022-09-21T18:18:46.003Z,16.90
2022-09-21T18:23:03.502Z,16.80
2022-09-21T18:27:13.445Z,16.70
2022-09-21T18:31:36.097Z,16.70
2022-09-21T18:35:56.549Z,16.60
2022-09-21T18:54:18.729Z,16.20
2022-09-21T18:58:30.378Z,16.00
2022-09-21T19:02:58.700Z,16.00
2022-09-21T19:07:55.810Z,16.10
2022-09-21T19:12:15.726Z,16.10
2022-09-21T19:16:39.814Z,16.10
2022-09-21T19:21:00.547Z,16.00
2022-09-21T19:25:17.198Z,15.90
2022-09-21T19:29:43.762Z,15.80
2022-09-21T19:33:53.126Z,15.70
2022-09-21T19:38:03.608Z,15.70
2022-09-21T19:42:27.865Z,15.60
2022-09-21T19:46:48.125Z,15.50
2022-09-21T19:50:59.224Z,15.50
2022-09-21T19:55:31.146Z,15.40
2022-09-21T19:59:46.455Z,15.30
2022-09-21T20:03:57.844Z,15.30
2022-09-21T20:08:14.092Z,15.20
2022-09-21T20:12:27.341Z,15.20
2022-09-21T20:16:46.087Z,15.20
2022-09-21T20:20:57.541Z,15.10
2022-09-21T20:25:14.728Z,15.10
2022-09-21T20:29:28.874Z,15.00
2022-09-21T20:33:37.989Z,15.00
2022-09-21T20:37:48.783Z,14.80
2022-09-21T20:41:58.686Z,14.70
2022-09-21T20:46:08.287Z,14.60
2022-09-21T20:50:18.206Z,14.60
2022-09-21T20:54:29.220Z,14.50
2022-09-21T20:58:38.183Z,14.50
2022-09-21T21:02:47.245Z,14.50
2022-09-21T21:06:57.242Z,14.40
2022-09-21T21:11:07.799Z,14.40
2022-09-21T21:15:16.828Z,14.30
2022-09-21T21:19:26.220Z,14.20
2022-09-21T21:23:55.075Z,14.20
2022-09-21T21:28:05.732Z,14.10
2022-09-21T21:32:15.174Z,14.10
2022-09-21T21:36:24.292Z,14.10
2022-09-21T21:40:33.339Z,14.10
2022-09-21T21:44:44.037Z,14.00
2022-09-21T21:48:53.312Z,13.80
2022-09-21T21:53:02.352Z,13.80
2022-09-21T21:57:11.484Z,13.70
2022-09-21T22:01:24.865Z,13.70
2022-09-21T22:05:34.044Z,13.70
2022-09-21T22:09:45.223Z,13.70
2022-09-21T22:13:57.562Z,13.70
2022-09-21T22:18:08.000Z,13.80
2022-09-21T22:22:16.995Z,13.80
2022-09-21T22:26:27.156Z,13.80
2022-09-21T22:30:36.081Z,13.80
2022-09-21T22:34:46.725Z,13.70
2022-09-21T22:38:56.634Z,13.70
2022-09-21T22:43:05.647Z,13.70
2022-09-21T22:47:14.658Z,13.70
2022-09-21T22:51:25.654Z,13.70
2022-09-21T22:55:35.137Z,13.60
2022-09-21T22:59:44.003Z,13.50
2022-09-21T23:03:54.562Z,13.40
2022-09-21T23:08:04.994Z,13.40
2022-09-21T23:12:13.930Z,13.30
2022-09-21T23:16:23.283Z,13.20
2022-09-21T23:20:32.296Z,13.10
2022-09-21T23:24:42.816Z,13.10
2022-09-21T23:28:53.844Z,13.00
2022-09-21T23:33:02.971Z,13.00
2022-09-21T23:37:11.718Z,12.90
2022-09-21T23:41:24.291Z,12.90
2022-09-21T23:45:33.058Z,12.90
2022-09-21T23:49:42.151Z,12.90
2022-09-21T23:53:51.166Z,12.90
2022-09-21T23:58:01.466Z,12.90
